Time;durP1;ratioP1;P1;durP2;ratioP2;P2;SDS_P1;SDS_P2;PMS_P1;PMS_P2;Temp;Humidity;BMP_temperature;BMP_pressure;BME280_temperature;BME280_humidity;BME280_pressure;Samples;Min_cycle;Max_cycle;Signal;HPM_P1;HPM_P2
2023/12/08 00:01:08;;;;;;;0.40;0.40;;;;;;;4.34;87.48;94904.69;4971728;28;20177;-69
2023/12/08 00:03:34;;;;;;;2.20;2.10;;;;;;;4.33;87.55;94891.84;4971658;28;20182;-69
2023/12/08 00:05:59;;;;;;;0.80;0.80;;;;;;;4.32;87.38;94895.44;4971824;28;20177;-69
2023/12/08 00:08:25;;;;;;;0.50;0.50;;;;;;;4.31;87.64;94897.25;4971265;28;20236;-68
2023/12/08 00:10:50;;;;;;;0.40;0.40;;;;;;;4.33;87.50;94899.66;4971411;28;20186;-68
2023/12/08 00:13:16;;;;;;;1.40;1.13;;;;;;;4.35;87.52;94897.69;4971248;28;20213;-68
2023/12/08 00:15:41;;;;;;;0.50;0.50;;;;;;;4.34;87.59;94896.88;4971256;28;20181;-69
2023/12/08 00:18:07;;;;;;;0.60;0.60;;;;;;;4.31;87.52;94901.66;4971228;28;20210;-68
2023/12/08 00:20:32;;;;;;;0.40;0.40;;;;;;;4.31;87.54;94905.06;4971234;28;20178;-69
2023/12/08 00:22:57;;;;;;;0.40;0.40;;;;;;;4.31;87.31;94902.47;4971082;28;20185;-69
2023/12/08 00:25:23;;;;;;;0.40;0.40;;;;;;;4.32;87.50;94901.47;4971195;28;20188;-69
2023/12/08 00:27:48;;;;;;;0.40;0.40;;;;;;;4.32;87.33;94900.66;4971119;28;20221;-68
2023/12/08 00:30:14;;;;;;;0.60;0.60;;;;;;;4.29;87.56;94899.19;4969418;28;20195;-68
2023/12/08 00:32:40;;;;;;;0.73;0.73;;;;;;;4.33;87.57;94899.66;4970692;28;20197;-68
2023/12/08 00:35:06;;;;;;;0.53;0.53;;;;;;;4.15;87.58;94869.47;4970894;28;20240;-68
2023/12/08 00:37:32;;;;;;;1.90;1.80;;;;;;;4.30;87.13;94898.22;4971000;28;20337;-68
2023/12/08 00:39:57;;;;;;;0.50;0.50;;;;;;;4.23;86.80;94902.50;4971049;28;20197;-69
2023/12/08 00:42:23;;;;;;;0.40;0.40;;;;;;;4.22;87.19;94890.44;4971122;28;20229;-69
2023/12/08 00:44:48;;;;;;;0.97;0.97;;;;;;;4.28;87.64;94894.16;4971171;28;20181;-69
2023/12/08 00:47:14;;;;;;;0.47;0.47;;;;;;;4.26;87.46;94891.72;4983258;28;20187;-69
2023/12/08 00:49:40;;;;;;;1.03;1.03;;;;;;;4.30;87.61;94889.59;4990351;28;20533;-68
2023/12/08 00:52:06;;;;;;;1.00;1.00;;;;;;;4.33;87.83;94890.03;4990107;28;20181;-68
2023/12/08 00:54:31;;;;;;;0.40;0.40;;;;;;;4.35;87.20;94890.69;4990142;28;20189;-68
2023/12/08 00:56:57;;;;;;;0.53;0.53;;;;;;;4.37;86.75;94893.94;4990334;28;20177;-69
2023/12/08 00:59:22;;;;;;;0.40;0.40;;;;;;;4.39;86.62;94899.00;4989985;28;20254;-69
2023/12/08 01:01:48;;;;;;;0.47;0.47;;;;;;;4.36;86.60;94904.53;4990170;28;20251;-68
2023/12/08 01:04:13;;;;;;;0.40;0.40;;;;;;;4.27;85.84;94897.75;4990213;28;20188;-68
2023/12/08 01:06:39;;;;;;;0.40;0.40;;;;;;;4.24;86.28;94908.53;4989901;28;20177;-68
2023/12/08 01:09:04;;;;;;;0.60;0.60;;;;;;;4.21;86.50;94903.66;4990360;28;20208;-68
2023/12/08 01:11:30;;;;;;;0.40;0.40;;;;;;;4.16;86.59;94897.13;4990134;28;20193;-68
2023/12/08 01:13:55;;;;;;;0.53;0.53;;;;;;;4.15;86.57;94890.31;4990115;28;20209;-68
2023/12/08 01:16:21;;;;;;;0.47;0.47;;;;;;;4.12;86.15;94905.47;4990155;28;20192;-68
2023/12/08 01:18:46;;;;;;;0.50;0.50;;;;;;;4.10;86.54;94900.44;4990033;28;20714;-68
2023/12/08 01:21:12;;;;;;;1.63;1.53;;;;;;;4.15;86.03;94905.16;4986161;28;20186;-68
2023/12/08 01:23:37;;;;;;;0.30;0.30;;;;;;;4.11;86.28;94902.06;4970613;28;20186;-68
2023/12/08 01:26:06;;;;;;;0.60;0.60;;;;;;;4.03;86.41;94888.25;4970499;28;20658;-68
2023/12/08 01:28:32;;;;;;;2.23;1.60;;;;;;;4.15;86.60;94903.31;4970307;28;20177;-68
2023/12/08 01:30:57;;;;;;;0.47;0.47;;;;;;;4.15;86.99;94902.53;4970646;28;20684;-68
2023/12/08 01:33:23;;;;;;;0.40;0.40;;;;;;;4.18;86.93;94905.59;4970780;28;20673;-68
2023/12/08 01:35:48;;;;;;;1.23;1.23;;;;;;;4.14;87.03;94898.31;4970623;28;20244;-68
2023/12/08 01:38:14;;;;;;;0.50;0.50;;;;;;;4.17;87.28;94896.16;4970792;28;20217;-68
2023/12/08 01:40:40;;;;;;;0.40;0.40;;;;;;;4.24;87.24;94904.09;4970525;28;20236;-68
2023/12/08 01:43:10;;;;;;;0.63;0.63;;;;;;;4.25;86.50;94899.69;4972768;28;20188;-68
2023/12/08 01:45:36;;;;;;;0.40;0.40;;;;;;;4.24;86.44;94898.09;4974241;28;20189;-68
2023/12/08 01:48:01;;;;;;;0.50;0.50;;;;;;;4.24;86.53;94903.31;4974073;28;20269;-68
2023/12/08 01:50:27;;;;;;;0.60;0.60;;;;;;;4.01;86.46;94893.63;4974091;28;20177;-68
2023/12/08 01:52:52;;;;;;;1.03;1.03;;;;;;;3.93;86.93;94895.47;4973864;28;20313;-68
2023/12/08 01:55:18;;;;;;;0.43;0.43;;;;;;;3.98;87.47;94887.97;4973922;28;20630;-68
2023/12/08 01:57:43;;;;;;;0.50;0.50;;;;;;;4.04;87.52;94895.91;4973993;28;20181;-68
2023/12/08 02:00:10;;;;;;;0.40;0.40;;;;;;;4.07;87.17;94895.56;4973838;28;20182;-68
2023/12/08 02:02:36;;;;;;;0.40;0.40;;;;;;;3.96;87.36;94872.50;4973849;28;20846;-68
2023/12/08 02:05:02;;;;;;;0.40;0.40;;;;;;;4.11;86.80;94898.66;4973836;28;20174;-69
2023/12/08 02:07:28;;;;;;;0.60;0.60;;;;;;;3.96;86.72;94902.94;4973886;28;20193;-69
2023/12/08 02:09:54;;;;;;;0.50;0.50;;;;;;;3.95;87.22;94893.50;4974186;28;20457;-68
2023/12/08 02:12:19;;;;;;;0.70;0.70;;;;;;;4.02;87.22;94902.25;4973567;28;20240;-68
2023/12/08 02:14:50;;;;;;;4.43;2.73;;;;;;;4.00;87.01;94905.03;4973645;28;20188;-68
2023/12/08 02:17:30;;;;;;;0.40;0.40;;;;;;;4.08;86.65;94909.38;4973763;28;20173;-68
2023/12/08 02:19:56;;;;;;;0.60;0.60;;;;;;;3.89;86.55;94909.81;4973599;28;20657;-68
2023/12/08 02:22:24;;;;;;;2.67;2.57;;;;;;;3.88;86.38;94914.22;4973501;28;20174;-68
2023/12/08 02:24:50;;;;;;;1.60;1.50;;;;;;;3.87;86.38;94915.19;4973361;28;20240;-68
2023/12/08 02:27:16;;;;;;;0.40;0.40;;;;;;;3.86;85.98;94917.94;4973515;28;20178;-68
2023/12/08 02:29:41;;;;;;;0.70;0.70;;;;;;;3.86;86.00;94910.13;4992747;28;20227;-68
2023/12/08 02:32:20;;;;;;;0.40;0.40;;;;;;;3.84;86.25;94912.09;4992747;28;20281;-68
2023/12/08 02:34:48;;;;;;;0.70;0.70;;;;;;;3.88;86.16;94919.41;4992839;28;20239;-68
2023/12/08 02:37:15;;;;;;;0.43;0.43;;;;;;;3.87;86.13;94912.59;4992695;28;20184;-68
2023/12/08 02:39:41;;;;;;;0.40;0.40;;;;;;;3.91;85.99;94919.06;4992570;28;20181;-69
2023/12/08 02:42:07;;;;;;;0.73;0.73;;;;;;;3.94;85.74;94917.91;4992520;28;20224;-68
2023/12/08 02:44:32;;;;;;;0.40;0.40;;;;;;;3.98;86.24;94917.41;4992674;28;20259;-69
2023/12/08 02:46:59;;;;;;;0.40;0.40;;;;;;;4.07;86.68;94918.19;4992329;28;20177;-69
2023/12/08 02:49:24;;;;;;;0.50;0.50;;;;;;;4.11;86.36;94914.28;4992373;28;20188;-68
2023/12/08 02:51:50;;;;;;;0.50;0.50;;;;;;;4.09;86.38;94921.44;4992360;28;20184;-68
2023/12/08 02:54:15;;;;;;;0.50;0.50;;;;;;;4.10;85.76;94921.28;4991567;28;20577;-68
2023/12/08 02:56:41;;;;;;;0.50;0.50;;;;;;;4.11;85.82;94924.69;4992277;28;20177;-68
2023/12/08 02:59:06;;;;;;;0.50;0.50;;;;;;;4.14;85.86;94922.56;4992179;28;20185;-69
2023/12/08 03:01:31;;;;;;;0.50;0.50;;;;;;;4.18;85.27;94920.41;4992000;28;20249;-69
2023/12/08 03:03:57;;;;;;;0.50;0.50;;;;;;;4.09;85.15;94904.00;4992254;28;20211;-68
2023/12/08 03:06:22;;;;;;;0.50;0.50;;;;;;;4.18;85.07;94921.22;4992176;28;20188;-69
2023/12/08 03:08:48;;;;;;;0.50;0.50;;;;;;;4.15;84.99;94924.16;4991835;28;20201;-68
2023/12/08 03:11:13;;;;;;;2.00;1.67;;;;;;;4.14;85.06;94922.56;4991555;28;20602;-68
2023/12/08 03:13:39;;;;;;;0.50;0.50;;;;;;;4.16;85.30;94923.19;4991785;28;20339;-68
2023/12/08 03:16:05;;;;;;;0.40;0.40;;;;;;;4.11;85.15;94907.28;4992056;28;20188;-69
2023/12/08 03:18:30;;;;;;;0.70;0.70;;;;;;;4.23;84.78;94917.31;4992162;28;20184;-69
2023/12/08 03:20:56;;;;;;;0.40;0.40;;;;;;;4.23;84.88;94915.53;4988624;28;20181;-69
2023/12/08 03:23:21;;;;;;;0.40;0.40;;;;;;;4.24;84.75;94924.16;4972362;28;20178;-69
2023/12/08 03:25:46;;;;;;;0.40;0.40;;;;;;;4.24;84.49;94916.34;4972148;28;20174;-69
2023/12/08 03:28:12;;;;;;;0.40;0.40;;;;;;;4.25;84.37;94912.72;4972190;28;20190;-69
2023/12/08 03:30:37;;;;;;;0.40;0.40;;;;;;;4.26;84.56;94920.38;4971712;28;20193;-68
2023/12/08 03:33:03;;;;;;;0.40;0.40;;;;;;;4.26;84.37;94916.97;4971902;28;20205;-69
2023/12/08 03:35:28;;;;;;;0.50;0.50;;;;;;;4.29;84.54;94922.66;4972047;28;20625;-69
2023/12/08 03:37:54;;;;;;;0.50;0.50;;;;;;;4.27;84.37;94910.78;4972042;28;20205;-68
2023/12/08 03:40:20;;;;;;;0.40;0.40;;;;;;;4.29;84.09;94919.22;4971988;28;20192;-69
2023/12/08 03:42:45;;;;;;;0.60;0.60;;;;;;;4.30;83.91;94913.84;4971921;28;20586;-68
2023/12/08 03:45:11;;;;;;;0.87;0.87;;;;;;;4.29;84.21;94914.03;4972031;28;20182;-68
2023/12/08 03:47:36;;;;;;;0.40;0.40;;;;;;;4.32;84.09;94916.28;4971899;28;20185;-68
2023/12/08 03:50:02;;;;;;;0.40;0.40;;;;;;;4.33;84.02;94904.88;4971876;28;20193;-68
2023/12/08 03:52:27;;;;;;;0.50;0.50;;;;;;;4.31;83.49;94917.28;4972651;28;20584;-69
2023/12/08 03:54:53;;;;;;;0.40;0.40;;;;;;;4.27;83.61;94900.34;4991450;28;20177;-68
2023/12/08 03:57:19;;;;;;;0.50;0.50;;;;;;;4.24;83.84;94903.31;4991000;28;20200;-69
2023/12/08 03:59:45;;;;;;;0.50;0.50;;;;;;;4.28;84.17;94899.38;4990591;28;20656;-70
2023/12/08 04:02:10;;;;;;;0.50;0.50;;;;;;;4.26;84.01;94896.13;4990380;28;20185;-69
2023/12/08 04:04:36;;;;;;;0.50;0.50;;;;;;;4.24;83.66;94888.47;4990175;28;20230;-69
2023/12/08 04:07:02;;;;;;;0.50;0.50;;;;;;;4.05;83.69;94855.06;4989409;28;20259;-70
2023/12/08 04:09:29;;;;;;;0.50;0.50;;;;;;;4.13;83.67;94865.44;4990493;28;20174;-70
2023/12/08 04:11:55;;;;;;;0.40;0.40;;;;;;;4.21;83.97;94878.41;4990331;28;20195;-70
2023/12/08 04:14:20;;;;;;;1.23;1.23;;;;;;;4.25;84.01;94878.84;4990304;28;20287;-70
2023/12/08 04:16:46;;;;;;;0.50;0.50;;;;;;;4.26;83.95;94880.50;4990432;28;20247;-70
2023/12/08 04:19:12;;;;;;;0.50;0.50;;;;;;;4.27;84.04;94874.28;4990156;28;20180;-70
2023/12/08 04:21:38;;;;;;;0.50;0.50;;;;;;;4.27;83.95;94877.72;4990129;28;20187;-70
2023/12/08 04:24:04;;;;;;;0.60;0.60;;;;;;;4.24;83.98;94865.03;4990042;28;20177;-69
2023/12/08 04:26:30;;;;;;;0.60;0.60;;;;;;;4.27;83.92;94872.50;4990328;28;20256;-70
2023/12/08 04:28:56;;;;;;;0.40;0.40;;;;;;;4.27;84.18;94874.28;4989964;28;20264;-70
2023/12/08 04:31:22;;;;;;;0.50;0.50;;;;;;;4.26;84.04;94876.09;4990505;28;20185;-70
2023/12/08 04:33:47;;;;;;;0.40;0.40;;;;;;;4.21;83.96;94856.75;4990171;28;20207;-70
2023/12/08 04:36:14;;;;;;;0.60;0.60;;;;;;;4.29;83.95;94870.53;4990050;28;20784;-70
2023/12/08 04:38:39;;;;;;;0.47;0.47;;;;;;;4.31;84.02;94886.81;4990172;28;21016;-69
2023/12/08 04:41:05;;;;;;;1.27;1.27;;;;;;;4.29;83.89;94886.19;4990369;28;20220;-69
2023/12/08 04:43:30;;;;;;;0.63;0.63;;;;;;;4.29;84.11;94890.56;4990069;28;20186;-70
2023/12/08 04:45:56;;;;;;;0.40;0.40;;;;;;;4.22;84.37;94884.44;4990036;28;20181;-69
2023/12/08 04:48:21;;;;;;;0.50;0.50;;;;;;;4.20;84.28;94889.81;4990018;28;20205;-69
2023/12/08 04:50:47;;;;;;;1.00;1.00;;;;;;;4.15;84.17;94895.50;4989087;28;20177;-69
2023/12/08 04:53:12;;;;;;;0.70;0.70;;;;;;;4.04;83.87;94884.69;4989853;28;20204;-70
2023/12/08 04:55:38;;;;;;;0.40;0.40;;;;;;;4.14;84.13;94898.31;4988919;28;20173;-69
2023/12/08 04:58:03;;;;;;;0.47;0.47;;;;;;;4.12;83.97;94897.66;4989656;28;20239;-70
2023/12/08 05:00:29;;;;;;;0.67;0.67;;;;;;;4.13;83.66;94900.09;4989959;28;20260;-69
2023/12/08 05:02:57;;;;;;;0.40;0.40;;;;;;;4.08;83.60;94912.81;4984596;28;20190;-70
2023/12/08 05:05:23;;;;;;;0.97;0.97;;;;;;;4.05;84.10;94902.75;4969340;28;20536;-70
2023/12/08 05:07:49;;;;;;;0.80;0.80;;;;;;;4.07;84.42;94911.19;4969445;28;20244;-69
2023/12/08 05:10:14;;;;;;;0.40;0.40;;;;;;;4.09;84.59;94906.63;4969486;28;20244;-69
2023/12/08 05:12:39;;;;;;;0.80;0.80;;;;;;;4.14;84.69;94906.13;4969212;28;20209;-69
2023/12/08 05:15:05;;;;;;;0.40;0.40;;;;;;;4.17;84.35;94913.59;4969418;28;20593;-69
2023/12/08 05:17:31;;;;;;;0.77;0.77;;;;;;;4.17;83.74;94906.59;4982052;28;20185;-69
2023/12/08 05:19:56;;;;;;;0.50;0.50;;;;;;;4.06;83.82;94885.34;4991955;28;20188;-69
2023/12/08 05:22:22;;;;;;;0.40;0.40;;;;;;;4.11;83.61;94909.06;4993817;28;20181;-68
2023/12/08 05:24:47;;;;;;;0.77;0.77;;;;;;;4.09;84.00;94911.00;4994048;28;20586;-68
2023/12/08 05:27:13;;;;;;;0.60;0.60;;;;;;;4.11;84.09;94912.47;4993831;28;20255;-68
2023/12/08 05:29:38;;;;;;;0.40;0.40;;;;;;;4.14;84.29;94914.75;4993732;28;20216;-69
2023/12/08 05:32:04;;;;;;;1.87;1.53;;;;;;;4.13;83.98;94910.53;4993573;28;20199;-68
2023/12/08 05:34:30;;;;;;;0.97;0.97;;;;;;;4.10;84.08;94910.84;4977903;28;20539;-68
2023/12/08 05:36:55;;;;;;;0.57;0.57;;;;;;;4.11;83.77;94914.28;4972756;28;20185;-68
2023/12/08 05:39:20;;;;;;;1.13;1.13;;;;;;;4.01;83.73;94904.06;4974026;28;20186;-68
2023/12/08 05:41:46;;;;;;;0.43;0.43;;;;;;;4.15;84.22;94916.34;4973574;28;20635;-68
2023/12/08 05:44:11;;;;;;;0.40;0.40;;;;;;;4.16;84.15;94917.97;4973978;28;20178;-68
2023/12/08 05:46:37;;;;;;;0.40;0.40;;;;;;;4.16;83.95;94917.16;4973827;28;20188;-68
2023/12/08 05:49:02;;;;;;;0.50;0.50;;;;;;;4.17;84.02;94918.78;4973201;28;20185;-69
2023/12/08 05:51:28;;;;;;;0.50;0.50;;;;;;;4.18;84.22;94923.84;4973750;28;20189;-68
2023/12/08 05:53:53;;;;;;;1.00;1.00;;;;;;;4.18;83.75;94925.63;4979864;28;20208;-68
2023/12/08 05:56:19;;;;;;;0.87;0.87;;;;;;;4.16;83.44;94923.19;4992937;28;20185;-68
2023/12/08 05:58:44;;;;;;;0.50;0.50;;;;;;;4.10;83.37;94918.66;4993087;28;20183;-68
2023/12/08 06:01:14;;;;;;;1.37;1.27;;;;;;;4.13;83.22;94926.16;4992982;28;20181;-69
2023/12/08 06:03:39;;;;;;;0.50;0.50;;;;;;;4.09;83.41;94929.25;4979738;28;20593;-69
2023/12/08 06:06:05;;;;;;;3.73;3.37;;;;;;;4.11;83.64;94940.31;4973517;28;20206;-69
2023/12/08 06:08:33;;;;;;;1.40;1.40;;;;;;;4.11;82.83;94932.50;4980992;28;20182;-69
2023/12/08 06:10:58;;;;;;;0.50;0.50;;;;;;;4.04;82.89;94928.97;4973430;28;20264;-69
2023/12/08 06:13:25;;;;;;;0.40;0.40;;;;;;;4.00;82.76;94938.88;4973445;28;20201;-68
2023/12/08 06:15:50;;;;;;;3.37;2.67;;;;;;;3.99;83.06;94937.25;4972351;28;20640;-69
2023/12/08 06:18:16;;;;;;;1.73;1.63;;;;;;;3.98;82.79;94940.06;4973513;28;20181;-69
2023/12/08 06:20:41;;;;;;;0.40;0.40;;;;;;;3.98;83.08;94948.66;4973294;28;20170;-69
2023/12/08 06:23:07;;;;;;;0.40;0.40;;;;;;;3.94;83.01;94944.78;4973237;28;20177;-69
2023/12/08 06:25:32;;;;;;;1.57;1.47;;;;;;;3.93;83.02;94947.53;4973241;28;20181;-69
2023/12/08 06:27:57;;;;;;;0.43;0.43;;;;;;;3.97;83.01;94952.25;4973118;28;20247;-69
2023/12/08 06:30:24;;;;;;;0.50;0.50;;;;;;;3.96;82.95;94950.63;4972569;28;20193;-69
2023/12/08 06:32:49;;;;;;;0.40;0.40;;;;;;;3.96;83.39;94945.44;4973185;28;20256;-69
2023/12/08 06:35:15;;;;;;;0.50;0.50;;;;;;;4.01;83.71;94955.31;4973295;28;20177;-70
2023/12/08 06:37:41;;;;;;;0.50;0.50;;;;;;;4.01;83.61;94952.72;4973258;28;20174;-70
2023/12/08 06:40:07;;;;;;;0.40;0.40;;;;;;;4.03;83.19;94953.38;4973024;28;20193;-68
2023/12/08 06:42:33;;;;;;;0.47;0.47;;;;;;;3.94;83.16;94942.16;4972422;28;20268;-68
2023/12/08 06:44:58;;;;;;;0.60;0.60;;;;;;;4.05;83.43;94959.22;4973119;28;20209;-69
2023/12/08 06:47:24;;;;;;;0.40;0.40;;;;;;;4.04;83.63;94962.81;4972776;28;20189;-70
2023/12/08 06:49:49;;;;;;;0.40;0.40;;;;;;;3.99;83.67;94955.47;4972424;28;20658;-69
2023/12/08 06:52:15;;;;;;;4.93;1.37;;;;;;;3.96;83.98;94958.44;4972408;28;20185;-68
2023/12/08 06:54:40;;;;;;;5.63;5.30;;;;;;;4.01;84.07;94957.94;4971774;28;20185;-68
2023/12/08 06:57:06;;;;;;;0.50;0.50;;;;;;;4.05;83.88;94959.22;4972930;28;20225;-68
2023/12/08 06:59:31;;;;;;;0.43;0.43;;;;;;;4.05;83.61;94956.63;4972834;28;20633;-68
2023/12/08 07:01:57;;;;;;;0.40;0.40;;;;;;;4.01;83.94;94963.94;4972145;28;20190;-68
2023/12/08 07:04:22;;;;;;;0.43;0.43;;;;;;;4.06;84.18;94963.47;4972199;28;20184;-67
2023/12/08 07:06:47;;;;;;;0.50;0.50;;;;;;;4.07;83.90;94965.06;4972581;28;20208;-67
2023/12/08 07:09:13;;;;;;;0.93;0.93;;;;;;;4.15;83.68;94957.25;4972306;28;20189;-68
2023/12/08 07:11:38;;;;;;;0.40;0.40;;;;;;;4.15;83.86;94959.84;4972628;28;20649;-68
2023/12/08 07:14:04;;;;;;;0.50;0.50;;;;;;;4.11;83.65;94964.56;4972805;28;20209;-68
2023/12/08 07:16:29;;;;;;;0.40;0.40;;;;;;;4.09;83.65;94963.91;4972571;28;20736;-68
2023/12/08 07:18:55;;;;;;;0.43;0.43;;;;;;;4.10;83.66;94968.16;4972382;28;20240;-68
2023/12/08 07:21:20;;;;;;;0.60;0.60;;;;;;;4.12;83.97;94960.19;4972152;28;20257;-68
2023/12/08 07:23:46;;;;;;;1.53;1.53;;;;;;;4.05;83.81;94964.44;4972288;28;20174;-68
2023/12/08 07:26:11;;;;;;;0.50;0.50;;;;;;;4.00;83.72;94964.94;4972239;28;20864;-68
2023/12/08 07:28:37;;;;;;;0.40;0.40;;;;;;;3.93;84.01;94963.16;4972345;28;20641;-68
2023/12/08 07:31:03;;;;;;;0.80;0.80;;;;;;;3.96;84.48;94955.84;4972099;28;20260;-67
2023/12/08 07:33:29;;;;;;;0.50;0.50;;;;;;;3.97;84.81;94969.69;4972063;28;20198;-69
2023/12/08 07:35:54;;;;;;;0.50;0.50;;;;;;;3.99;84.31;94963.28;4972082;28;20240;-67
2023/12/08 07:38:20;;;;;;;1.17;1.10;;;;;;;4.03;84.56;94967.22;4972093;28;20236;-68
2023/12/08 07:40:45;;;;;;;0.50;0.50;;;;;;;4.09;84.59;94969.13;4971502;28;20218;-68
2023/12/08 07:43:11;;;;;;;7.73;1.87;;;;;;;4.11;84.56;94969.78;4970695;28;20201;-68
2023/12/08 07:45:37;;;;;;;0.60;0.60;;;;;;;4.15;84.41;94972.88;4970520;28;20196;-67
2023/12/08 07:48:03;;;;;;;0.40;0.40;;;;;;;4.13;84.54;94972.22;4970324;28;20193;-69
2023/12/08 07:50:28;;;;;;;0.50;0.50;;;;;;;4.18;84.08;94975.13;4971847;28;20228;-69
2023/12/08 07:52:54;;;;;;;0.60;0.60;;;;;;;4.21;83.94;94973.97;4971782;28;20205;-68
2023/12/08 07:55:19;;;;;;;0.50;0.50;;;;;;;4.23;84.27;94972.03;4971742;28;20216;-68
2023/12/08 07:57:45;;;;;;;8.70;4.93;;;;;;;4.16;83.57;94974.47;4971710;28;20205;-69
2023/12/08 08:00:10;;;;;;;0.50;0.50;;;;;;;4.23;83.56;94970.25;4971878;28;20185;-69
2023/12/08 08:02:39;;;;;;;0.40;0.40;;;;;;;4.28;82.99;94969.72;4971775;28;20174;-68
2023/12/08 08:05:05;;;;;;;0.47;0.47;;;;;;;4.29;83.16;94972.16;4971809;28;20185;-68
2023/12/08 08:07:31;;;;;;;0.40;0.40;;;;;;;4.39;83.25;94979.78;4971602;28;20178;-67
2023/12/08 08:09:56;;;;;;;0.70;0.70;;;;;;;4.38;83.24;94968.53;4970501;28;20229;-69
2023/12/08 08:12:22;;;;;;;0.40;0.40;;;;;;;4.39;83.15;94969.34;4971500;28;20181;-69
2023/12/08 08:14:47;;;;;;;0.40;0.40;;;;;;;4.42;83.56;94964.59;4971554;28;20200;-69
2023/12/08 08:17:12;;;;;;;0.40;0.40;;;;;;;4.47;83.55;94954.47;4971459;28;20178;-68
2023/12/08 08:19:38;;;;;;;0.47;0.47;;;;;;;4.53;82.92;94958.19;4971505;28;20561;-68
2023/12/08 08:22:04;;;;;;;10.70;2.87;;;;;;;4.55;82.77;94959.66;4971301;28;20664;-69
2023/12/08 08:24:29;;;;;;;0.40;0.40;;;;;;;4.58;82.64;94953.28;4970994;28;20555;-68
2023/12/08 08:26:55;;;;;;;0.50;0.50;;;;;;;4.62;82.99;94946.75;4970547;28;20228;-68
2023/12/08 08:29:20;;;;;;;0.50;0.50;;;;;;;4.67;82.77;94943.63;4970526;28;20189;-68
2023/12/08 08:31:46;;;;;;;0.83;0.83;;;;;;;4.67;82.44;94943.63;4970408;28;21087;-68
2023/12/08 08:34:11;;;;;;;0.40;0.40;;;;;;;4.63;81.46;94937.13;4973008;28;20221;-68
2023/12/08 08:36:37;;;;;;;1.97;1.80;;;;;;;4.63;81.83;94932.72;4970028;28;20177;-69
2023/12/08 08:39:03;;;;;;;1.50;1.47;;;;;;;4.69;81.98;94939.03;4971734;28;20174;-69
2023/12/08 08:41:28;;;;;;;0.40;0.40;;;;;;;4.71;81.65;94934.47;4970795;28;20276;-67
2023/12/08 08:43:54;;;;;;;0.60;0.60;;;;;;;4.74;81.68;94937.56;4971085;28;20260;-68
2023/12/08 08:46:20;;;;;;;0.70;0.70;;;;;;;4.80;82.12;94931.63;4970810;28;20189;-69
2023/12/08 08:48:45;;;;;;;0.40;0.40;;;;;;;4.81;81.39;94924.63;4967419;28;20178;-68
2023/12/08 08:51:14;;;;;;;0.50;0.50;;;;;;;4.87;81.43;94927.34;4969611;28;20170;-68
2023/12/08 08:53:39;;;;;;;1.03;1.03;;;;;;;4.86;81.28;94930.94;4973225;28;20208;-69
2023/12/08 08:56:05;;;;;;;0.60;0.60;;;;;;;4.95;81.32;94931.69;4973155;28;20189;-68
2023/12/08 08:58:32;;;;;;;0.50;0.50;;;;;;;4.99;80.96;94917.31;4973908;28;20184;-68
2023/12/08 09:00:57;;;;;;;0.60;0.60;;;;;;;5.05;80.46;94913.19;4973980;28;20221;-68
2023/12/08 09:03:23;;;;;;;0.43;0.43;;;;;;;5.06;80.19;94915.63;4973383;28;20173;-69
2023/12/08 09:05:48;;;;;;;0.40;0.40;;;;;;;5.11;79.92;94922.91;4973846;28;20253;-68
2023/12/08 09:08:14;;;;;;;0.57;0.57;;;;;;;5.11;78.81;94918.50;4973768;28;20229;-68
2023/12/08 09:10:45;;;;;;;0.40;0.40;;;;;;;5.08;78.50;94918.06;4984885;28;20607;-68
2023/12/08 09:13:11;;;;;;;0.40;0.40;;;;;;;5.09;79.08;94915.28;4992890;28;20193;-69
2023/12/08 09:15:36;;;;;;;0.47;0.47;;;;;;;5.13;79.17;94918.34;4974744;28;20260;-68
2023/12/08 09:18:03;;;;;;;0.53;0.53;;;;;;;5.13;78.74;94915.72;4973162;28;20386;-67
2023/12/08 09:20:29;;;;;;;0.50;0.50;;;;;;;5.07;78.70;94892.97;4973454;28;20264;-68
2023/12/08 09:22:54;;;;;;;0.40;0.40;;;;;;;5.20;78.56;94911.44;4973779;28;20244;-68
2023/12/08 09:25:20;;;;;;;1.07;1.07;;;;;;;5.22;78.51;94904.25;4973562;28;20181;-69
2023/12/08 09:27:45;;;;;;;0.90;0.90;;;;;;;5.29;78.95;94900.75;4973334;28;20194;-68
2023/12/08 09:30:11;;;;;;;0.70;0.70;;;;;;;5.29;77.46;94900.75;4973540;28;20555;-68
2023/12/08 09:32:37;;;;;;;0.67;0.67;;;;;;;5.28;77.19;94898.31;4973108;28;20685;-68
2023/12/08 09:35:03;;;;;;;0.40;0.40;;;;;;;5.29;77.47;94908.56;4972964;28;20180;-69
2023/12/08 09:37:28;;;;;;;4.00;2.40;;;;;;;5.30;78.08;94904.16;4973432;28;20193;-69
2023/12/08 09:39:54;;;;;;;0.40;0.40;;;;;;;5.28;77.84;94895.69;4972726;28;20653;-69
2023/12/08 09:42:35;;;;;;;1.00;1.00;;;;;;;5.25;78.42;94893.47;4972498;28;20589;-70
2023/12/08 09:45:04;;;;;;;1.67;1.60;;;;;;;5.20;79.31;94893.16;4971960;28;20661;-70
2023/12/08 09:47:35;;;;;;;0.73;0.73;;;;;;;5.03;79.32;94869.03;4972851;28;20240;-69
2023/12/08 09:50:05;;;;;;;0.40;0.40;;;;;;;5.10;79.00;94875.16;4972892;28;20532;-68
2023/12/08 09:52:33;;;;;;;0.53;0.53;;;;;;;5.18;78.91;94882.13;4973169;28;20202;-68
2023/12/08 09:54:59;;;;;;;1.80;1.70;;;;;;;5.15;79.21;94872.84;4973805;28;20193;-68
2023/12/08 09:57:29;;;;;;;3.20;2.80;;;;;;;5.27;78.80;94881.88;4973943;28;20577;-68
2023/12/08 09:59:57;;;;;;;0.50;0.50;;;;;;;5.30;78.21;94880.69;4973930;28;20245;-68
2023/12/08 10:02:23;;;;;;;0.50;0.50;;;;;;;5.28;78.34;94878.25;4973826;28;20173;-67
2023/12/08 10:04:48;;;;;;;5.60;1.40;;;;;;;5.29;78.38;94871.22;4973255;28;20204;-68
2023/12/08 10:07:16;;;;;;;0.50;0.50;;;;;;;5.11;78.74;94835.03;4972502;28;20189;-68
2023/12/08 10:09:41;;;;;;;1.27;1.27;;;;;;;5.30;78.74;94862.41;4979681;28;20178;-69
2023/12/08 10:12:07;;;;;;;0.40;0.40;;;;;;;5.34;78.81;94850.63;4973562;28;20177;-68
2023/12/08 10:14:32;;;;;;;0.40;0.40;;;;;;;5.37;78.45;94852.88;4973451;28;20284;-66
2023/12/08 10:16:58;;;;;;;0.40;0.40;;;;;;;5.40;77.92;94852.53;4973003;28;20668;-65
2023/12/08 10:19:24;;;;;;;0.50;0.50;;;;;;;5.40;77.87;94851.72;4973305;28;20182;-68
2023/12/08 10:22:05;;;;;;;0.43;0.43;;;;;;;5.34;78.01;94831.56;4972049;28;20554;-68
2023/12/08 10:24:31;;;;;;;0.40;0.40;;;;;;;5.38;77.83;94838.84;4972331;28;20265;-69
2023/12/08 10:26:58;;;;;;;0.50;0.50;;;;;;;5.49;77.92;94843.63;4973562;28;20214;-67
2023/12/08 10:29:29;;;;;;;0.70;0.70;;;;;;;5.57;77.61;94851.38;4973114;28;20658;-68
2023/12/08 10:31:56;;;;;;;4.70;1.53;;;;;;;5.58;77.06;94858.22;4973136;28;20244;-69
2023/12/08 10:34:22;;;;;;;0.40;0.40;;;;;;;5.52;76.71;94845.88;4973186;28;20213;-67
2023/12/08 10:36:48;;;;;;;1.00;1.00;;;;;;;5.52;77.15;94853.72;4972914;28;20174;-68
2023/12/08 10:39:13;;;;;;;0.40;0.40;;;;;;;5.50;77.28;94840.03;4972709;28;20174;-68
2023/12/08 10:41:39;;;;;;;0.40;0.40;;;;;;;5.40;77.57;94821.22;4973237;28;20222;-67
2023/12/08 10:44:08;;;;;;;0.73;0.73;;;;;;;5.42;77.55;94821.84;4973261;28;21192;-66
2023/12/08 10:46:34;;;;;;;0.40;0.40;;;;;;;5.54;77.97;94832.63;4972608;28;20686;-67
2023/12/08 10:49:01;;;;;;;0.50;0.50;;;;;;;5.54;77.43;94836.06;4972387;28;20201;-69
2023/12/08 10:51:29;;;;;;;1.60;0.70;;;;;;;5.52;77.30;94839.84;4972667;28;20260;-68
2023/12/08 10:53:55;;;;;;;1.10;1.03;;;;;;;5.53;78.21;94826.63;4972229;28;20740;-68
2023/12/08 10:56:22;;;;;;;2.40;2.30;;;;;;;5.52;78.17;94827.63;4971056;28;20178;-68
2023/12/08 10:58:57;;;;;;;0.93;0.93;;;;;;;5.52;78.15;94825.00;4970452;28;21051;-69
2023/12/08 11:01:25;;;;;;;2.87;1.93;;;;;;;5.48;77.64;94822.91;4971115;28;20188;-67
2023/12/08 11:03:57;;;;;;;0.87;0.87;;;;;;;5.47;78.01;94824.72;4971172;28;20180;-68
2023/12/08 11:06:30;;;;;;;1.90;1.80;;;;;;;5.48;77.73;94821.13;4971391;28;20256;-69
2023/12/08 11:09:00;;;;;;;0.50;0.50;;;;;;;5.47;77.88;94827.31;4971680;28;20170;-68
2023/12/08 11:11:29;;;;;;;0.60;0.60;;;;;;;5.35;78.61;94809.69;4972011;28;20212;-68
2023/12/08 11:14:07;;;;;;;0.30;0.30;;;;;;;5.46;78.78;94822.28;4972467;28;20266;-69
2023/12/08 11:16:45;;;;;;;1.83;1.73;;;;;;;5.46;79.28;94814.44;4971243;28;20178;-68
2023/12/08 11:19:13;;;;;;;0.70;0.70;;;;;;;5.50;79.06;94810.50;4972523;28;20657;-68
2023/12/08 11:21:38;;;;;;;1.00;1.00;;;;;;;5.53;79.09;94813.56;4972064;28;20417;-68
2023/12/08 11:24:07;;;;;;;0.50;0.50;;;;;;;5.59;78.97;94812.03;4972432;28;20236;-68
2023/12/08 11:26:58;;;;;;;2.70;2.43;;;;;;;5.59;78.30;94810.22;4972580;28;20188;-68
2023/12/08 11:29:43;;;;;;;0.70;0.70;;;;;;;5.57;78.15;94814.00;4983514;28;20188;-68
2023/12/08 11:32:38;;;;;;;0.67;0.67;;;;;;;5.56;78.53;94807.97;4974402;28;20178;-68
2023/12/08 11:35:09;;;;;;;0.50;0.50;;;;;;;5.57;78.65;94809.59;4972276;28;20272;-68
2023/12/08 11:37:35;;;;;;;7.93;7.20;;;;;;;5.58;78.30;94813.81;4972183;28;20182;-68